Time;durP1;ratioP1;P1;durP2;ratioP2;P2;SDS_P1;SDS_P2;PMS_P1;PMS_P2;Temp;Humidity;BMP_temperature;BMP_pressure;BME280_temperature;BME280_humidity;BME280_pressure;Samples;Min_cycle;Max_cycle;Signal;HPM_P1;HPM_P2
2023/05/17 00:00:47;;;;;;;8.15;3.63;;;10.10;99.90;;;;;;4879176;29;20185;-60
2023/05/17 00:03:16;;;;;;;8.95;4.00;;;10.10;99.90;;;;;;4879182;29;20873;-60
2023/05/17 00:05:42;;;;;;;7.65;3.70;;;10.20;99.90;;;;;;4879227;29;20186;-60
2023/05/17 00:08:08;;;;;;;9.70;3.47;;;10.20;99.90;;;;;;4879169;29;20241;-60
2023/05/17 00:10:33;;;;;;;8.75;3.60;;;10.10;99.90;;;;;;4879181;29;20232;-60
2023/05/17 00:12:59;;;;;;;8.15;4.07;;;10.10;99.90;;;;;;4879105;29;20576;-60
2023/05/17 00:15:24;;;;;;;8.35;3.58;;;10.10;99.90;;;;;;4879232;29;20193;-60
2023/05/17 00:17:50;;;;;;;10.55;4.40;;;10.00;99.90;;;;;;4879111;29;20560;-60
2023/05/17 00:20:16;;;;;;;8.65;3.70;;;10.00;99.90;;;;;;4880663;29;20189;-60
2023/05/17 00:22:44;;;;;;;9.65;4.00;;;10.00;99.90;;;;;;4882696;29;20177;-60
2023/05/17 00:25:10;;;;;;;7.70;3.75;;;10.00;99.90;;;;;;4882578;29;20181;-60
2023/05/17 00:27:35;;;;;;;6.32;3.65;;;10.00;99.90;;;;;;4882508;29;20682;-60
2023/05/17 00:30:01;;;;;;;10.10;3.80;;;9.90;99.90;;;;;;4882369;29;20189;-60
2023/05/17 00:32:27;;;;;;;7.63;3.75;;;9.90;99.90;;;;;;4882562;29;20181;-58
2023/05/17 00:34:52;;;;;;;8.23;4.20;;;9.80;99.90;;;;;;4882469;29;20546;-60
2023/05/17 00:37:18;;;;;;;7.72;4.03;;;9.80;99.90;;;;;;4882512;29;20228;-59
2023/05/17 00:39:43;;;;;;;11.27;4.20;;;9.80;99.90;;;;;;4882265;29;20260;-60
2023/05/17 00:42:10;;;;;;;7.85;4.22;;;9.90;99.90;;;;;;4882176;29;20588;-60
2023/05/17 00:44:36;;;;;;;6.47;4.05;;;9.80;99.90;;;;;;4882427;29;20185;-60
2023/05/17 00:47:02;;;;;;;9.80;4.22;;;9.80;99.90;;;;;;4882239;29;20640;-60
2023/05/17 00:49:28;;;;;;;6.72;3.67;;;9.90;99.90;;;;;;4882164;29;20597;-60
2023/05/17 00:51:54;;;;;;;8.07;4.00;;;9.80;99.90;;;;;;4882151;29;20236;-59
2023/05/17 00:54:20;;;;;;;7.72;3.72;;;9.80;99.90;;;;;;4882137;29;20239;-60
2023/05/17 00:56:47;;;;;;;9.50;4.88;;;9.80;99.90;;;;;;4881988;29;20204;-60
2023/05/17 00:59:13;;;;;;;9.70;3.90;;;9.70;99.90;;;;;;4881947;29;20182;-60
2023/05/17 01:01:42;;;;;;;7.85;4.10;;;9.70;99.90;;;;;;4882099;29;20225;-60
2023/05/17 01:04:09;;;;;;;12.85;4.88;;;9.70;99.90;;;;;;4881891;29;20572;-60
2023/05/17 01:06:35;;;;;;;9.65;4.00;;;9.70;99.90;;;;;;4881954;29;20190;-60
2023/05/17 01:09:02;;;;;;;8.27;4.03;;;9.70;99.90;;;;;;4881839;29;20209;-59
2023/05/17 01:12:04;;;;;;;8.77;4.40;;;9.70;99.90;;;;;;4881629;29;20196;-60
2023/05/17 01:14:57;;;;;;;8.35;4.30;;;9.70;99.90;;;;;;4881785;29;20180;-59
2023/05/17 01:17:52;;;;;;;6.68;3.75;;;9.60;99.90;;;;;;4881745;29;20205;-59
2023/05/17 01:20:27;;;;;;;8.25;4.05;;;9.60;99.90;;;;;;4881617;29;20591;-59
2023/05/17 01:23:10;;;;;;;7.47;3.67;;;9.50;99.90;;;;;;4881709;29;20181;-58
2023/05/17 01:25:56;;;;;;;9.35;4.05;;;9.50;99.90;;;;;;4881493;29;20209;-59
2023/05/17 01:28:23;;;;;;;10.25;4.63;;;9.40;99.90;;;;;;4881407;29;20651;-60
2023/05/17 01:30:50;;;;;;;5.15;3.85;;;9.40;99.90;;;;;;4881594;29;20208;-60
2023/05/17 01:33:18;;;;;;;6.45;3.38;;;9.40;99.90;;;;;;4881354;29;20279;-59
2023/05/17 01:35:44;;;;;;;7.45;3.67;;;9.40;99.90;;;;;;4881457;29;20180;-59
2023/05/17 01:38:09;;;;;;;6.93;4.43;;;9.40;99.90;;;;;;4881294;29;20213;-59
2023/05/17 01:40:39;;;;;;;7.60;4.20;;;9.20;99.90;;;;;;4881165;29;20555;-59
2023/05/17 01:43:17;;;;;;;9.27;4.80;;;9.20;99.90;;;;;;4881308;29;20178;-60
2023/05/17 01:46:13;;;;;;;9.68;4.30;;;9.10;99.90;;;;;;4881259;29;20192;-59
2023/05/17 01:48:48;;;;;;;10.07;4.30;;;9.10;99.90;;;;;;4881059;29;20173;-60
2023/05/17 01:51:18;;;;;;;6.82;3.60;;;9.10;99.90;;;;;;4864336;29;20176;-60
2023/05/17 01:53:51;;;;;;;5.25;3.90;;;9.10;99.90;;;;;;4880987;29;20589;-60
2023/05/17 01:56:25;;;;;;;7.55;4.43;;;9.10;99.90;;;;;;4880872;29;20635;-59
2023/05/17 01:58:52;;;;;;;7.38;4.10;;;9.00;99.90;;;;;;4881017;29;20245;-60
2023/05/17 02:01:20;;;;;;;10.55;4.53;;;8.80;99.90;;;;;;4864069;29;20726;-60
2023/05/17 02:03:48;;;;;;;6.43;4.35;;;8.70;99.90;;;;;;4880324;29;20273;-60
2023/05/17 02:06:14;;;;;;;9.13;4.80;;;8.60;99.90;;;;;;4880091;29;20181;-60
2023/05/17 02:08:40;;;;;;;9.65;4.75;;;8.70;99.90;;;;;;4880043;29;20186;-60
2023/05/17 02:11:06;;;;;;;8.70;4.85;;;8.80;99.90;;;;;;4879793;29;20184;-60
2023/05/17 02:13:31;;;;;;;11.98;5.20;;;8.90;99.90;;;;;;4879837;29;20636;-60
2023/05/17 02:16:01;;;;;;;7.55;4.65;;;8.90;99.90;;;;;;4880311;29;20192;-60
2023/05/17 02:18:27;;;;;;;9.48;4.75;;;9.10;99.90;;;;;;4879551;29;20235;-60
2023/05/17 02:20:53;;;;;;;7.65;4.53;;;9.10;99.90;;;;;;4879893;29;20249;-60
2023/05/17 02:23:20;;;;;;;9.75;4.93;;;9.10;99.90;;;;;;4879695;29;20174;-60
2023/05/17 02:25:46;;;;;;;6.32;4.18;;;9.10;99.90;;;;;;4879668;29;20189;-60
2023/05/17 02:28:11;;;;;;;7.45;5.15;;;9.10;99.90;;;;;;4879565;29;20182;-60
2023/05/17 02:30:40;;;;;;;6.38;4.75;;;9.10;99.90;;;;;;4879749;29;20282;-59
2023/05/17 02:33:07;;;;;;;10.68;4.85;;;9.10;99.90;;;;;;4879684;29;20201;-59
2023/05/17 02:35:32;;;;;;;8.13;4.93;;;9.10;99.90;;;;;;4879660;29;20177;-60
2023/05/17 02:37:58;;;;;;;9.30;5.18;;;9.10;99.90;;;;;;4879388;29;20569;-60
2023/05/17 02:40:24;;;;;;;7.85;4.72;;;9.10;99.90;;;;;;4879285;29;20182;-59
2023/05/17 02:42:50;;;;;;;7.72;4.93;;;9.00;99.90;;;;;;4878888;29;20234;-59
2023/05/17 02:45:16;;;;;;;8.90;4.85;;;9.00;99.90;;;;;;4879262;29;20535;-60
2023/05/17 02:47:42;;;;;;;6.57;4.63;;;9.00;99.90;;;;;;4879506;29;20228;-59
2023/05/17 02:50:08;;;;;;;10.23;5.28;;;8.90;99.90;;;;;;4879712;29;20659;-59
2023/05/17 02:52:33;;;;;;;11.35;5.15;;;9.00;99.90;;;;;;4879322;29;20263;-60
2023/05/17 02:54:59;;;;;;;11.32;5.28;;;9.00;99.90;;;;;;4879274;29;20220;-59
2023/05/17 02:57:25;;;;;;;12.93;5.22;;;9.00;99.90;;;;;;4879091;29;20216;-59
2023/05/17 02:59:50;;;;;;;10.65;5.50;;;8.90;99.90;;;;;;4879119;29;20181;-59
2023/05/17 03:02:16;;;;;;;15.05;5.47;;;9.00;99.90;;;;;;4840951;29;1122171;-59
2023/05/17 03:04:42;;;;;;;9.10;5.28;;;8.90;99.90;;;;;;4879945;29;20596;-60
2023/05/17 03:07:08;;;;;;;8.88;5.43;;;8.90;99.90;;;;;;4879684;29;20186;-59
2023/05/17 03:09:33;;;;;;;11.60;6.05;;;9.00;99.90;;;;;;4863075;29;20191;-60
2023/05/17 03:11:59;;;;;;;11.13;6.65;;;8.90;99.90;;;;;;4879632;29;20737;-59
2023/05/17 03:14:25;;;;;;;13.82;6.00;;;9.00;99.90;;;;;;4879676;29;20260;-59
2023/05/17 03:16:51;;;;;;;9.75;5.93;;;9.00;99.90;;;;;;4879467;29;20221;-59
2023/05/17 03:19:16;;;;;;;14.52;6.70;;;9.00;99.90;;;;;;4879724;29;20214;-59
2023/05/17 03:21:42;;;;;;;8.60;6.30;;;9.00;99.90;;;;;;4879661;29;20651;-59
2023/05/17 03:24:08;;;;;;;12.23;6.00;;;9.10;99.90;;;;;;4879593;29;20174;-60
2023/05/17 03:26:33;;;;;;;12.75;6.80;;;9.30;99.90;;;;;;4879739;29;20189;-59
2023/05/17 03:28:59;;;;;;;10.10;5.88;;;9.30;99.90;;;;;;4879454;29;20178;-59
2023/05/17 03:31:25;;;;;;;10.13;6.00;;;9.40;99.90;;;;;;4879643;29;20189;-60
2023/05/17 03:33:50;;;;;;;12.77;6.38;;;9.30;99.90;;;;;;4879413;29;20188;-60
2023/05/17 03:36:16;;;;;;;13.77;6.65;;;9.40;99.90;;;;;;4879441;29;20280;-59
2023/05/17 03:38:42;;;;;;;10.10;6.10;;;9.30;99.90;;;;;;4879380;29;20188;-59
2023/05/17 03:41:07;;;;;;;11.02;6.15;;;9.40;99.90;;;;;;4879334;29;20186;-59
2023/05/17 03:43:33;;;;;;;10.48;5.70;;;9.40;99.90;;;;;;4879363;29;20611;-59
2023/05/17 03:45:59;;;;;;;12.65;6.90;;;9.40;99.90;;;;;;4879272;29;20707;-60
2023/05/17 03:48:24;;;;;;;12.10;5.90;;;9.40;99.90;;;;;;4879423;29;20609;-59
2023/05/17 03:50:50;;;;;;;18.52;6.50;;;9.40;99.90;;;;;;4879650;29;20181;-60
2023/05/17 03:53:16;;;;;;;10.60;5.80;;;9.50;99.90;;;;;;4879351;29;20237;-59
2023/05/17 03:55:41;;;;;;;12.10;5.93;;;9.60;99.90;;;;;;4881670;29;20188;-60
2023/05/17 03:58:07;;;;;;;10.95;6.82;;;9.70;99.90;;;;;;4882985;29;20209;-59
2023/05/17 04:00:33;;;;;;;8.38;5.72;;;9.70;99.90;;;;;;4882945;29;20536;-59
2023/05/17 04:02:59;;;;;;;12.30;6.45;;;9.80;99.90;;;;;;4882909;29;20653;-59
2023/05/17 04:05:25;;;;;;;11.02;6.05;;;9.80;99.90;;;;;;4883031;29;20185;-59
2023/05/17 04:07:51;;;;;;;9.57;5.85;;;9.90;99.90;;;;;;4882899;29;20195;-60
2023/05/17 04:10:17;;;;;;;11.68;6.00;;;9.90;99.90;;;;;;4882918;29;20267;-60
2023/05/17 04:12:42;;;;;;;12.82;5.85;;;9.80;99.90;;;;;;4882781;29;20656;-60
2023/05/17 04:15:08;;;;;;;10.88;6.30;;;9.90;99.90;;;;;;4882644;29;20213;-60
2023/05/17 04:17:35;;;;;;;9.63;5.40;;;9.90;99.90;;;;;;4882643;29;20725;-60
2023/05/17 04:20:01;;;;;;;8.20;5.30;;;10.00;99.90;;;;;;4882792;29;20216;-60
2023/05/17 04:22:26;;;;;;;13.95;5.65;;;10.00;99.90;;;;;;4882681;29;20204;-59
2023/05/17 04:24:52;;;;;;;11.43;5.80;;;10.00;99.90;;;;;;4882638;29;20272;-60
2023/05/17 04:27:17;;;;;;;9.00;5.50;;;9.90;99.90;;;;;;4882479;29;20635;-60
2023/05/17 04:29:43;;;;;;;11.07;5.65;;;10.00;99.90;;;;;;4882384;29;20173;-60
2023/05/17 04:32:09;;;;;;;8.68;5.53;;;10.00;99.90;;;;;;4882643;29;20177;-60
2023/05/17 04:34:35;;;;;;;9.48;5.32;;;10.00;99.90;;;;;;4882515;29;20182;-60
2023/05/17 04:37:01;;;;;;;12.45;6.20;;;10.00;99.90;;;;;;4882303;29;20216;-60
2023/05/17 04:39:26;;;;;;;10.95;5.88;;;10.00;99.90;;;;;;4882413;29;20679;-60
2023/05/17 04:41:52;;;;;;;9.07;5.10;;;10.10;99.90;;;;;;4882303;29;20259;-60
2023/05/17 04:44:18;;;;;;;11.23;5.90;;;10.10;99.90;;;;;;4882159;29;20270;-60
2023/05/17 04:46:44;;;;;;;11.73;5.78;;;10.10;99.90;;;;;;4882411;29;20220;-60
2023/05/17 04:49:10;;;;;;;11.75;5.78;;;10.10;99.90;;;;;;4882217;29;20185;-60
2023/05/17 04:51:35;;;;;;;11.40;6.40;;;10.10;99.90;;;;;;4882229;29;20265;-60
2023/05/17 04:54:05;;;;;;;9.77;5.97;;;10.20;99.90;;;;;;4882089;29;20272;-60
2023/05/17 04:56:32;;;;;;;13.93;5.82;;;10.30;99.90;;;;;;4881845;29;20664;-60
2023/05/17 04:58:57;;;;;;;11.32;6.05;;;10.30;99.90;;;;;;4881931;29;20185;-60
2023/05/17 05:01:23;;;;;;;9.25;5.35;;;10.30;99.90;;;;;;4882159;29;20543;-60
2023/05/17 05:03:49;;;;;;;14.85;5.93;;;10.40;99.90;;;;;;4881763;29;20240;-60
2023/05/17 05:06:15;;;;;;;12.35;5.57;;;10.50;99.90;;;;;;4881594;29;20181;-60
2023/05/17 05:08:40;;;;;;;11.68;5.63;;;10.60;99.90;;;;;;4882075;29;20527;-60
2023/05/17 05:11:06;;;;;;;14.32;5.63;;;10.70;99.90;;;;;;4882094;29;20260;-60
2023/05/17 05:13:32;;;;;;;15.93;6.13;;;10.80;99.90;;;;;;4881659;29;20205;-60
2023/05/17 05:15:58;;;;;;;9.43;5.50;;;10.90;99.90;;;;;;4881933;29;20643;-60
2023/05/17 05:18:23;;;;;;;11.60;5.47;;;10.80;99.90;;;;;;4881526;29;20308;-60
2023/05/17 05:20:49;;;;;;;11.90;5.20;;;10.90;99.90;;;;;;4881721;29;20181;-60
2023/05/17 05:23:17;;;;;;;11.05;5.68;;;10.90;99.90;;;;;;4881689;29;20205;-60
2023/05/17 05:25:43;;;;;;;10.73;5.47;;;11.00;99.90;;;;;;4864882;29;20540;-59
2023/05/17 05:28:08;;;;;;;10.88;5.63;;;11.10;99.90;;;;;;4881364;29;20226;-60
2023/05/17 05:30:34;;;;;;;9.93;5.72;;;11.10;99.90;;;;;;4881543;29;20173;-60
2023/05/17 05:32:59;;;;;;;11.05;5.93;;;11.20;99.90;;;;;;4881526;29;20178;-60
2023/05/17 05:35:28;;;;;;;12.45;5.72;;;11.20;99.90;;;;;;4881476;29;20577;-60
2023/05/17 05:37:57;;;;;;;10.57;5.30;;;11.20;99.90;;;;;;4881102;29;20695;-60
2023/05/17 05:40:23;;;;;;;10.23;5.38;;;11.10;99.90;;;;;;4881250;29;20647;-60
2023/05/17 05:42:49;;;;;;;11.85;5.32;;;11.20;99.90;;;;;;4864450;29;20181;-60
2023/05/17 05:45:15;;;;;;;10.40;5.53;;;11.20;99.90;;;;;;4881242;29;20185;-60
2023/05/17 05:47:40;;;;;;;10.63;5.32;;;11.30;99.90;;;;;;4881240;29;20212;-60
2023/05/17 05:50:07;;;;;;;12.25;5.47;;;11.30;99.90;;;;;;4881004;29;20181;-60
2023/05/17 05:52:33;;;;;;;13.55;5.40;;;11.30;99.90;;;;;;4881108;29;20185;-60
2023/05/17 05:54:59;;;;;;;9.68;5.60;;;11.40;99.90;;;;;;4880952;29;20181;-60
2023/05/17 05:57:24;;;;;;;11.90;5.70;;;11.40;99.90;;;;;;4880779;29;20211;-60
2023/05/17 05:59:50;;;;;;;16.90;6.53;;;11.40;99.90;;;;;;4881127;29;20552;-60
2023/05/17 06:02:16;;;;;;;12.23;6.03;;;11.50;99.90;;;;;;4880827;29;20177;-60
2023/05/17 06:04:42;;;;;;;11.10;5.88;;;11.50;99.90;;;;;;4864232;29;20209;-60
2023/05/17 06:07:08;;;;;;;12.35;5.90;;;11.60;99.90;;;;;;4880845;29;20299;-60
2023/05/17 06:09:33;;;;;;;12.35;6.22;;;11.70;99.90;;;;;;4880733;29;20181;-60
2023/05/17 06:12:00;;;;;;;12.02;5.75;;;11.70;99.90;;;;;;4880646;29;20576;-60
2023/05/17 06:14:25;;;;;;;13.20;6.38;;;11.80;99.90;;;;;;4880568;29;20686;-60
2023/05/17 06:16:51;;;;;;;15.18;5.80;;;11.90;99.90;;;;;;4880136;29;20304;-60
2023/05/17 06:19:17;;;;;;;13.73;6.03;;;11.90;99.90;;;;;;4880257;29;20181;-60
2023/05/17 06:21:42;;;;;;;12.05;5.80;;;12.00;99.90;;;;;;4880522;29;20276;-60
2023/05/17 06:24:08;;;;;;;11.35;5.30;;;12.10;99.90;;;;;;4880418;29;20185;-60
2023/05/17 06:26:34;;;;;;;12.40;5.20;;;12.20;99.90;;;;;;4880623;29;20249;-60
2023/05/17 06:29:00;;;;;;;10.48;5.55;;;12.20;99.90;;;;;;4880601;29;20214;-60
2023/05/17 06:31:25;;;;;;;10.27;4.88;;;12.20;99.90;;;;;;4880486;29;20547;-60
2023/05/17 06:33:51;;;;;;;10.18;5.32;;;12.20;99.90;;;;;;4880393;29;20543;-60
2023/05/17 06:36:17;;;;;;;13.75;5.40;;;12.40;99.90;;;;;;4880308;29;20182;-60
2023/05/17 06:38:42;;;;;;;14.63;5.50;;;12.50;99.90;;;;;;4880232;29;20628;-57
2023/05/17 06:41:08;;;;;;;12.57;5.00;;;12.50;99.90;;;;;;4880028;29;20686;-59
2023/05/17 06:43:33;;;;;;;12.07;4.55;;;12.60;99.90;;;;;;4880339;29;20539;-59
2023/05/17 06:45:59;;;;;;;12.75;4.93;;;12.70;99.90;;;;;;4880090;29;20205;-59
2023/05/17 06:48:25;;;;;;;10.30;4.68;;;12.80;99.90;;;;;;4880166;29;20188;-59
2023/05/17 06:50:50;;;;;;;12.50;4.85;;;12.80;99.90;;;;;;4880003;29;20185;-60
2023/05/17 06:53:16;;;;;;;10.55;5.05;;;12.80;99.90;;;;;;4879889;29;20178;-59
2023/05/17 06:55:42;;;;;;;9.55;5.22;;;12.90;99.90;;;;;;4879885;29;20202;-59
2023/05/17 06:58:08;;;;;;;11.63;4.82;;;13.00;99.90;;;;;;4880308;29;20570;-59
2023/05/17 07:00:33;;;;;;;10.65;5.70;;;13.10;99.90;;;;;;4880048;29;20618;-59
2023/05/17 07:02:59;;;;;;;9.40;4.93;;;13.20;99.90;;;;;;4879634;29;20229;-59
2023/05/17 07:05:27;;;;;;;11.20;4.60;;;13.10;99.90;;;;;;4879868;29;20181;-59
2023/05/17 07:07:53;;;;;;;8.45;4.57;;;13.10;99.90;;;;;;4879730;29;20189;-59
2023/05/17 07:10:18;;;;;;;12.95;4.47;;;13.20;99.90;;;;;;4863086;29;20181;-59
2023/05/17 07:12:44;;;;;;;10.32;4.55;;;13.20;99.90;;;;;;4879866;29;20181;-59
2023/05/17 07:15:10;;;;;;;11.95;4.43;;;13.30;99.90;;;;;;4879790;29;20181;-59
2023/05/17 07:17:36;;;;;;;11.30;5.07;;;13.40;99.90;;;;;;4879654;29;20216;-59
2023/05/17 07:20:02;;;;;;;10.75;4.65;;;13.30;99.90;;;;;;4879582;29;20516;-59
2023/05/17 07:22:28;;;;;;;7.80;4.07;;;13.30;99.90;;;;;;4879554;29;20189;-59
2023/05/17 07:24:54;;;;;;;10.75;4.65;;;13.50;99.90;;;;;;4879490;29;20178;-59
2023/05/17 07:27:19;;;;;;;10.73;4.30;;;13.50;99.90;;;;;;4879571;29;20185;-59
2023/05/17 07:29:45;;;;;;;7.65;4.55;;;13.80;99.90;;;;;;4879426;29;20317;-59
2023/05/17 07:32:11;;;;;;;9.45;4.00;;;14.10;99.90;;;;;;4879529;29;20193;-59
2023/05/17 07:34:36;;;;;;;8.25;4.13;;;14.20;99.90;;;;;;4879503;29;20185;-59
2023/05/17 07:37:02;;;;;;;7.63;3.72;;;14.20;99.90;;;;;;4879268;29;20206;-59
2023/05/17 07:39:28;;;;;;;9.65;4.10;;;14.00;99.90;;;;;;4879334;29;20177;-59
2023/05/17 07:41:53;;;;;;;8.45;3.40;;;13.90;99.90;;;;;;4879518;29;20177;-59
2023/05/17 07:44:20;;;;;;;6.90;3.28;;;13.70;99.90;;;;;;4879426;29;20181;-59
2023/05/17 07:46:46;;;;;;;11.23;3.53;;;13.60;99.90;;;;;;4879351;29;20189;-59
2023/05/17 07:49:13;;;;;;;8.65;2.90;;;13.50;99.90;;;;;;4879245;29;20268;-60
2023/05/17 07:51:38;;;;;;;7.00;3.28;;;13.40;99.90;;;;;;4879267;29;20181;-59
2023/05/17 07:54:04;;;;;;;8.13;3.30;;;13.30;99.90;;;;;;4879177;29;20177;-59
2023/05/17 07:56:30;;;;;;;6.25;3.45;;;13.20;99.90;;;;;;4879228;29;20271;-59
2023/05/17 07:58:56;;;;;;;6.07;2.90;;;13.20;99.90;;;;;;4862624;29;20197;-59
2023/05/17 08:01:22;;;;;;;10.90;3.10;;;13.10;99.90;;;;;;4879231;29;20184;-59
2023/05/17 08:03:48;;;;;;;6.78;2.80;;;13.30;99.90;;;;;;4879362;29;20236;-59
2023/05/17 08:06:15;;;;;;;8.15;2.90;;;13.50;99.90;;;;;;4879394;29;20174;-59
2023/05/17 08:08:41;;;;;;;7.80;3.60;;;13.80;99.90;;;;;;4878958;29;20707;-59
2023/05/17 08:11:08;;;;;;;6.70;2.88;;;13.90;99.90;;;;;;4878996;29;20205;-59
2023/05/17 08:13:34;;;;;;;6.15;2.97;;;13.70;99.90;;;;;;4879511;29;20205;-59
2023/05/17 08:16:02;;;;;;;8.13;3.20;;;13.80;99.90;;;;;;4879206;29;20536;-59
2023/05/17 08:18:29;;;;;;;9.23;3.20;;;13.80;99.90;;;;;;4879009;29;20217;-59
2023/05/17 08:20:55;;;;;;;10.02;3.25;;;13.90;99.90;;;;;;4879007;29;20662;-59
2023/05/17 08:23:21;;;;;;;6.85;3.42;;;14.20;99.90;;;;;;4878871;29;20254;-59
2023/05/17 08:25:46;;;;;;;7.90;2.97;;;14.60;99.90;;;;;;4879155;29;20177;-59
2023/05/17 08:28:12;;;;;;;7.65;2.90;;;14.80;99.90;;;;;;4879144;29;20730;-59
2023/05/17 08:30:38;;;;;;;6.82;3.03;;;14.70;99.90;;;;;;4879080;29;20269;-59
2023/05/17 08:33:03;;;;;;;6.40;3.10;;;14.60;99.90;;;;;;4878905;29;20264;-59
2023/05/17 08:35:30;;;;;;;7.45;3.00;;;14.80;99.90;;;;;;4878916;29;20264;-59
2023/05/17 08:37:56;;;;;;;8.20;3.03;;;14.90;99.90;;;;;;4878683;29;20245;-59
2023/05/17 08:40:22;;;;;;;5.53;2.72;;;14.80;99.90;;;;;;4879194;29;20190;-59
2023/05/17 08:42:51;;;;;;;6.63;2.83;;;14.90;99.90;;;;;;4882436;29;20229;-59
2023/05/17 08:45:17;;;;;;;8.70;3.03;;;15.10;99.90;;;;;;4882238;29;20567;-59
2023/05/17 08:47:45;;;;;;;6.25;2.78;;;15.30;99.90;;;;;;4882256;29;20185;-59
2023/05/17 08:50:13;;;;;;;7.78;2.45;;;15.30;99.90;;;;;;4882145;29;20170;-59
2023/05/17 08:52:40;;;;;;;6.10;2.80;;;15.40;99.90;;;;;;4882278;29;20505;-59
2023/05/17 08:55:07;;;;;;;7.70;3.10;;;15.40;99.90;;;;;;4882400;29;20189;-59
2023/05/17 08:57:37;;;;;;;5.60;2.65;;;15.40;99.90;;;;;;4882166;29;20216;-59
2023/05/17 09:00:13;;;;;;;7.28;2.78;;;15.40;99.90;;;;;;4881986;29;20644;-59
2023/05/17 09:02:40;;;;;;;6.57;2.30;;;15.40;99.90;;;;;;4881837;29;20232;-59
2023/05/17 09:05:07;;;;;;;7.65;2.53;;;15.40;99.90;;;;;;4882199;29;20250;-59
2023/05/17 09:07:33;;;;;;;6.22;2.50;;;15.40;99.90;;;;;;4881962;29;20197;-59
2023/05/17 09:09:59;;;;;;;5.28;2.10;;;15.60;99.90;;;;;;4881826;29;20271;-59
2023/05/17 09:12:25;;;;;;;7.10;2.50;;;15.60;99.90;;;;;;4881900;29;20658;-59
2023/05/17 09:14:51;;;;;;;6.30;3.00;;;15.80;99.90;;;;;;4881752;29;20311;-59
2023/05/17 09:17:20;;;;;;;6.57;2.78;;;15.90;99.90;;;;;;4881589;29;20236;-59
2023/05/17 09:19:48;;;;;;;8.82;3.80;;;16.20;99.90;;;;;;4881676;29;20245;-59
2023/05/17 09:22:17;;;;;;;9.15;2.60;;;16.40;99.90;;;;;;4881699;29;20186;-59
2023/05/17 09:24:43;;;;;;;7.03;2.40;;;16.60;99.90;;;;;;4881670;29;20185;-59
2023/05/17 09:27:14;;;;;;;6.05;2.33;;;16.50;99.90;;;;;;4849510;29;20191;-59
2023/05/17 09:29:40;;;;;;;7.47;2.50;;;16.50;99.90;;;;;;4881513;29;20193;-59
2023/05/17 09:32:14;;;;;;;8.43;2.35;;;16.40;99.90;;;;;;4881298;29;20554;-59
2023/05/17 09:34:40;;;;;;;8.75;2.85;;;16.30;99.90;;;;;;4881558;29;20551;-59
2023/05/17 09:37:13;;;;;;;8.45;2.60;;;16.40;99.90;;;;;;4881394;29;20686;-59
2023/05/17 09:39:39;;;;;;;6.80;2.40;;;16.50;99.90;;;;;;4881432;29;20636;-59
2023/05/17 09:42:05;;;;;;;6.72;2.42;;;16.40;99.90;;;;;;4881293;29;20193;-59
2023/05/17 09:44:31;;;;;;;6.82;2.35;;;16.20;99.90;;;;;;4881160;29;20182;-60
2023/05/17 09:46:57;;;;;;;7.38;2.85;;;16.20;99.80;;;;;;4881377;29;20194;-59
2023/05/17 09:49:27;;;;;;;6.68;2.42;;;16.10;99.90;;;;;;4881462;29;20534;-59
2023/05/17 09:51:54;;;;;;;5.13;2.33;;;16.20;99.90;;;;;;4880478;29;20178;-59
2023/05/17 09:54:20;;;;;;;6.72;2.13;;;16.30;99.90;;;;;;4880811;29;20177;-59
2023/05/17 09:56:53;;;;;;;8.45;2.55;;;16.30;98.60;;;;;;4880871;29;20281;-59
2023/05/17 09:59:19;;;;;;;5.95;2.25;;;16.20;99.50;;;;;;4880846;29;20233;-60
2023/05/17 10:01:49;;;;;;;10.50;2.20;;;16.30;99.90;;;;;;4881032;29;20173;-59
2023/05/17 10:04:19;;;;;;;4.97;2.22;;;16.30;99.20;;;;;;4880725;29;20237;-59
2023/05/17 10:06:45;;;;;;;9.35;2.38;;;16.30;99.30;;;;;;4880888;29;20677;-59
2023/05/17 10:09:12;;;;;;;4.10;2.00;;;16.40;99.90;;;;;;4880864;29;20182;-59
2023/05/17 10:11:40;;;;;;;6.47;2.00;;;16.50;97.70;;;;;;4880790;29;20225;-63
2023/05/17 10:14:26;;;;;;;6.18;2.20;;;16.50;97.20;;;;;;4881043;29;20185;-59
2023/05/17 10:16:53;;;;;;;8.48;2.67;;;16.60;98.50;;;;;;4880738;29;20262;-59
2023/05/17 10:19:20;;;;;;;9.23;2.55;;;16.70;99.50;;;;;;4880637;29;20181;-59
2023/05/17 10:21:53;;;;;;;8.60;2.33;;;16.80;98.50;;;;;;4880545;29;20280;-59
2023/05/17 10:24:20;;;;;;;5.50;2.20;;;17.00;98.80;;;;;;4880671;29;20177;-59
2023/05/17 10:26:50;;;;;;;8.13;2.42;;;17.10;97.60;;;;;;4880519;29;20276;-59
2023/05/17 10:29:19;;;;;;;7.28;2.63;;;17.30;97.30;;;;;;4863950;29;20185;-59
2023/05/17 10:31:46;;;;;;;8.10;2.55;;;17.30;97.90;;;;;;4880435;29;20543;-59
2023/05/17 10:34:14;;;;;;;6.13;2.00;;;17.40;97.50;;;;;;4880386;29;20185;-59
2023/05/17 10:36:42;;;;;;;6.50;2.20;;;17.40;95.70;;;;;;4880100;29;20530;-59
2023/05/17 10:39:08;;;;;;;7.55;1.98;;;17.30;95.20;;;;;;4880482;29;20208;-59
2023/05/17 10:41:36;;;;;;;9.25;2.55;;;17.10;94.80;;;;;;4880360;29;20178;-59
2023/05/17 10:44:04;;;;;;;9.80;2.30;;;17.00;95.40;;;;;;4880432;29;20177;-59
2023/05/17 10:46:30;;;;;;;6.88;2.22;;;17.10;95.00;;;;;;4880133;29;20174;-59
2023/05/17 10:48:59;;;;;;;7.95;2.75;;;16.90;94.90;;;;;;4880119;29;20232;-59
2023/05/17 10:51:32;;;;;;;6.43;2.25;;;16.80;96.60;;;;;;4879926;29;20181;-60
2023/05/17 10:54:09;;;;;;;6.00;2.15;;;16.90;93.80;;;;;;4863761;29;20234;-59
2023/05/17 10:56:45;;;;;;;8.98;2.45;;;17.00;95.00;;;;;;4879921;29;20267;-59
2023/05/17 10:59:22;;;;;;;9.93;2.50;;;17.40;95.60;;;;;;4880029;29;20264;-59
2023/05/17 11:02:07;;;;;;;6.13;2.10;;;17.30;94.90;;;;;;4879828;29;20179;-59
2023/05/17 11:04:34;;;;;;;6.78;2.17;;;17.20;94.60;;;;;;4879684;29;20244;-59
2023/05/17 11:07:26;;;;;;;7.45;2.67;;;17.20;97.00;;;;;;4879860;29;20643;-59
2023/05/17 11:10:06;;;;;;;4.50;1.80;;;17.10;94.10;;;;;;4879751;29;20173;-59
2023/05/17 11:12:46;;;;;;;7.20;1.85;;;16.90;93.60;;;;;;4879995;29;20181;-59
2023/05/17 11:15:16;;;;;;;7.05;2.33;;;16.80;94.80;;;;;;4879803;29;20188;-59
2023/05/17 11:17:41;;;;;;;6.78;2.22;;;17.10;95.70;;;;;;4879614;29;20221;-60
2023/05/17 11:20:31;;;;;;;3.95;1.67;;;17.00;94.00;;;;;;4879614;29;20186;-60
2023/05/17 11:23:14;;;;;;;3.88;1.73;;;16.70;93.20;;;;;;4868232;29;20726;-59
2023/05/17 11:25:40;;;;;;;8.02;1.80;;;16.80;96.20;;;;;;4879639;29;20295;-59
2023/05/17 11:28:08;;;;;;;7.20;2.03;;;16.80;94.40;;;;;;4879626;29;20267;-60
2023/05/17 11:30:38;;;;;;;5.15;2.28;;;17.00;94.00;;;;;;4879492;29;20169;-60
2023/05/17 11:33:05;;;;;;;8.13;1.85;;;17.10;93.20;;;;;;4879420;29;20214;-59
2023/05/17 11:35:36;;;;;;;6.85;2.45;;;17.00;94.30;;;;;;4879557;29;20177;-59
2023/05/17 11:38:20;;;;;;;8.10;2.67;;;17.00;95.10;;;;;;4879482;29;20217;-59
2023/05/17 11:40:52;;;;;;;4.07;1.90;;;17.20;95.50;;;;;;4879551;29;20235;-60
2023/05/17 11:43:18;;;;;;;7.43;2.00;;;17.10;95.20;;;;;;4879397;29;20177;-59
2023/05/17 11:45:52;;;;;;;5.28;1.80;;;17.20;95.40;;;;;;4879544;29;20656;-60
2023/05/17 11:48:20;;;;;;;5.03;1.90;;;17.10;95.20;;;;;;4879524;29;20230;-60
2023/05/17 11:50:48;;;;;;;4.38;1.92;;;17.00;95.60;;;;;;4879351;29;20192;-59
2023/05/17 11:53:14;;;;;;;4.78;2.10;;;16.80;95.50;;;;;;4879282;29;20180;-60
2023/05/17 11:55:43;;;;;;;4.93;1.90;;;16.90;94.60;;;;;;4879290;29;20185;-59
2023/05/17 11:58:10;;;;;;;4.97;1.98;;;17.00;95.30;;;;;;4879186;29;20213;-59
2023/05/17 12:00:40;;;;;;;5.05;1.77;;;17.00;94.50;;;;;;4879364;29;20189;-59
2023/05/17 12:03:26;;;;;;;5.05;1.63;;;17.10;92.60;;;;;;4879272;29;20264;-60
2023/05/17 12:06:02;;;;;;;6.50;1.98;;;17.00;93.20;;;;;;4879494;29;20209;-59
2023/05/17 12:08:29;;;;;;;5.38;1.88;;;17.00;92.80;;;;;;4879106;29;20523;-59
2023/05/17 12:10:57;;;;;;;6.82;2.15;;;17.10;93.80;;;;;;4879347;29;20173;-60
2023/05/17 12:13:26;;;;;;;4.45;1.70;;;17.20;94.20;;;;;;4879166;29;20181;-60
2023/05/17 12:15:58;;;;;;;8.52;2.33;;;17.30;95.30;;;;;;4880214;29;20180;-60
2023/05/17 12:18:35;;;;;;;4.57;1.95;;;17.20;94.70;;;;;;4882846;29;20209;-60
2023/05/17 12:21:01;;;;;;;3.70;1.67;;;17.00;94.20;;;;;;4882625;29;20220;-59
2023/05/17 12:23:36;;;;;;;7.72;1.80;;;17.10;94.80;;;;;;4882703;29;20637;-60
2023/05/17 12:26:10;;;;;;;5.80;1.90;;;17.10;96.20;;;;;;4882858;29;20635;-60
2023/05/17 12:28:38;;;;;;;6.80;2.17;;;17.10;94.90;;;;;;4882694;29;20209;-60
2023/05/17 12:31:11;;;;;;;3.67;1.70;;;17.00;95.10;;;;;;4882475;29;20221;-60
2023/05/17 12:33:40;;;;;;;4.75;1.75;;;16.90;95.40;;;;;;4882553;29;20257;-60
2023/05/17 12:36:10;;;;;;;3.83;1.88;;;16.80;95.60;;;;;;4882640;29;20512;-60
2023/05/17 12:38:38;;;;;;;4.03;1.63;;;16.90;95.00;;;;;;4882428;29;20213;-60
2023/05/17 12:41:06;;;;;;;6.65;2.10;;;17.00;94.50;;;;;;4882475;29;20702;-60
2023/05/17 12:43:36;;;;;;;5.35;2.00;;;16.90;95.40;;;;;;4882421;29;20188;-60
2023/05/17 12:46:04;;;;;;;4.47;1.67;;;17.00;97.00;;;;;;4882335;29;20217;-60
2023/05/17 12:48:35;;;;;;;4.63;1.50;;;17.20;95.60;;;;;;4882224;29;20185;-60